createdAt,value
2022-12-12T00:00:26.317Z,101784.13
2022-12-12T00:01:35.815Z,101799.50
2022-12-12T00:02:39.011Z,101802.09
2022-12-12T00:03:41.003Z,101795.88
2022-12-12T00:04:42.977Z,101796.00
2022-12-12T00:05:44.828Z,101804.00
2022-12-12T00:06:46.601Z,101796.97
2022-12-12T00:07:48.531Z,101796.09
2022-12-12T00:08:50.919Z,101793.53
2022-12-12T00:09:52.709Z,101805.06
2022-12-12T00:10:54.552Z,101801.53
2022-12-12T00:11:56.345Z,101800.69
2022-12-12T00:12:58.116Z,101800.78
2022-12-12T00:14:00.053Z,101798.09
2022-12-12T00:15:03.585Z,101792.78
2022-12-12T00:16:07.618Z,101787.09
2022-12-12T00:17:09.418Z,101793.69
2022-12-12T00:18:11.253Z,101796.50
2022-12-12T00:19:13.291Z,101779.22
2022-12-12T00:20:15.157Z,101795.63
2022-12-12T00:21:19.807Z,101779.44
2022-12-12T00:22:21.576Z,101801.91
2022-12-12T00:23:25.160Z,101795.75
2022-12-12T00:24:26.933Z,101782.94
2022-12-12T00:25:28.716Z,101787.84
2022-12-12T00:26:33.868Z,101800.31
2022-12-12T00:27:35.687Z,101799.38
2022-12-12T00:28:37.489Z,101805.66
2022-12-12T00:29:39.317Z,101801.16
2022-12-12T00:30:41.107Z,101805.75
2022-12-12T00:31:42.895Z,101795.09
2022-12-12T00:32:44.846Z,101808.41
2022-12-12T00:33:49.030Z,101805.88
2022-12-12T00:34:50.885Z,101793.81
2022-12-12T00:35:54.469Z,101813.09
2022-12-12T00:36:56.261Z,101820.03
2022-12-12T00:37:58.110Z,101821.84
2022-12-12T00:39:00.461Z,101815.03
2022-12-12T00:40:02.532Z,101810.44
2022-12-12T00:41:04.472Z,101820.97
2022-12-12T00:42:06.266Z,101822.81
2022-12-12T00:43:08.134Z,101819.28
2022-12-12T00:44:10.509Z,101822.88
2022-12-12T00:45:12.739Z,101822.88
2022-12-12T00:46:21.022Z,101805.09
2022-12-12T00:47:22.918Z,101825.47
2022-12-12T00:48:24.739Z,101829.28
2022-12-12T00:49:26.570Z,101831.84
2022-12-12T00:50:28.442Z,101815.75
2022-12-12T00:51:31.208Z,101831.00
2022-12-12T00:52:33.418Z,101838.13
2022-12-12T00:53:36.672Z,101839.97
2022-12-12T00:54:38.441Z,101834.63
2022-12-12T00:55:40.420Z,101838.25
2022-12-12T00:56:43.313Z,101834.72
2022-12-12T00:57:45.062Z,101835.66
2022-12-12T00:58:47.958Z,101837.38
2022-12-12T00:59:49.715Z,101841.00
2022-12-12T01:00:52.250Z,101830.34
2022-12-12T01:01:54.162Z,101839.22
2022-12-12T01:02:57.762Z,101820.31
2022-12-12T01:04:00.413Z,101833.97
2022-12-12T01:05:02.356Z,101833.09
2022-12-12T01:06:04.821Z,101827.44
2022-12-12T01:07:06.594Z,101842.91
2022-12-12T01:08:08.548Z,101838.41
2022-12-12T01:09:10.500Z,101835.88
2022-12-12T01:10:12.325Z,101826.28
2022-12-12T01:11:15.981Z,101833.22
2022-12-12T01:12:18.053Z,101809.22
2022-12-12T01:13:19.972Z,101837.66
2022-12-12T01:14:21.751Z,101833.31
2022-12-12T01:15:23.795Z,101834.16
2022-12-12T01:16:26.071Z,101836.91
2022-12-12T01:17:28.121Z,101839.50
2022-12-12T01:18:29.933Z,101835.00
2022-12-12T01:19:31.738Z,101836.84
2022-12-12T01:20:33.954Z,101836.84
2022-12-12T01:21:36.987Z,101839.50
2022-12-12T01:22:38.741Z,101844.81
2022-12-12T01:23:41.269Z,101833.50
2022-12-12T01:24:43.089Z,101827.56
2022-12-12T01:25:44.941Z,101841.28
2022-12-12T01:26:46.848Z,101830.31
2022-12-12T01:27:48.854Z,101837.78
2022-12-12T01:28:52.054Z,101834.38
2022-12-12T01:29:56.090Z,101823.38
2022-12-12T01:30:58.039Z,101815.91
2022-12-12T01:31:59.871Z,101831.59
2022-12-12T01:33:01.773Z,101846.00
2022-12-12T01:34:03.599Z,101839.72
2022-12-12T01:35:08.336Z,101836.50
2022-12-12T01:36:10.134Z,101838.84
2022-12-12T01:37:11.928Z,101831.81
2022-12-12T01:38:13.676Z,101840.75
2022-12-12T01:39:15.449Z,101846.06
2022-12-12T01:40:20.582Z,101836.38
2022-12-12T01:41:22.857Z,101838.97
2022-12-12T01:42:24.630Z,101843.41
2022-12-12T01:43:26.569Z,101846.06
2022-12-12T01:44:48.922Z,101846.81
2022-12-12T01:46:00.104Z,101843.13
2022-12-12T01:47:01.966Z,101833.72
2022-12-12T01:48:05.536Z,101846.94
2022-12-12T01:49:18.334Z,101849.50
2022-12-12T01:50:21.297Z,101842.38
2022-12-12T01:51:26.438Z,101839.03
2022-12-12T01:52:44.273Z,101839.91
2022-12-12T01:53:47.601Z,101846.75
2022-12-12T01:54:54.460Z,101832.34
2022-12-12T01:55:57.668Z,101844.28
2022-12-12T01:57:03.404Z,101846.94
2022-12-12T01:58:05.233Z,101838.97
2022-12-12T01:59:11.142Z,101840.00
2022-12-12T02:00:16.328Z,101846.19
2022-12-12T02:01:20.533Z,101855.03
2022-12-12T02:02:22.432Z,101846.19
2022-12-12T02:03:24.386Z,101843.63
2022-12-12T02:04:27.933Z,101853.44
2022-12-12T02:05:49.113Z,101846.94
2022-12-12T02:06:52.292Z,101846.94
2022-12-12T02:07:54.509Z,101849.50
2022-12-12T02:09:01.078Z,101851.41
2022-12-12T02:10:04.916Z,101852.28
2022-12-12T02:11:06.848Z,101857.59
2022-12-12T02:12:14.112Z,101838.81
2022-12-12T02:13:23.366Z,101836.16
2022-12-12T02:14:34.586Z,101851.31
2022-12-12T02:15:50.030Z,101851.19
2022-12-12T02:17:10.953Z,101852.63
2022-12-12T02:18:17.863Z,101844.81
2022-12-12T02:19:49.968Z,101843.75
2022-12-12T02:21:15.588Z,101847.81
2022-12-12T02:22:32.707Z,101840.69
2022-12-12T02:24:09.614Z,101845.16
2022-12-12T02:25:42.585Z,101845.91
2022-12-12T02:27:08.676Z,101840.78
2022-12-12T02:28:16.363Z,101846.13
2022-12-12T02:29:51.288Z,101836.63
2022-12-12T02:31:08.253Z,101841.75
2022-12-12T02:32:44.121Z,101845.28
2022-12-12T02:34:05.101Z,101798.13
2022-12-12T02:35:32.864Z,101846.13
2022-12-12T02:36:47.916Z,101841.75
2022-12-12T02:38:07.346Z,101847.28
2022-12-12T02:39:14.710Z,101836.63
2022-12-12T02:40:26.014Z,101833.31
2022-12-12T02:41:54.442Z,101843.75
2022-12-12T02:43:09.777Z,101825.63
2022-12-12T02:44:30.950Z,101831.72
2022-12-12T02:46:11.861Z,101844.22
2022-12-12T02:47:21.411Z,101839.97
2022-12-12T02:49:03.327Z,101838.88
2022-12-12T02:50:22.281Z,101838.88
2022-12-12T02:51:26.124Z,101842.72
2022-12-12T02:52:28.709Z,101832.47
2022-12-12T02:53:30.533Z,101836.91
2022-12-12T02:54:32.297Z,101840.66
2022-12-12T02:55:36.576Z,101838.22
2022-12-12T02:56:47.181Z,101835.53
2022-12-12T02:57:50.091Z,101837.34
2022-12-12T02:58:52.022Z,101841.72
2022-12-12T03:00:00.380Z,101841.81
2022-12-12T03:01:39.158Z,101838.00
2022-12-12T03:02:42.312Z,101835.88
2022-12-12T03:04:23.000Z,101833.22
2022-12-12T03:06:20.733Z,101840.16
2022-12-12T03:07:48.985Z,101831.00
2022-12-12T03:09:13.710Z,101828.44
2022-12-12T03:10:49.144Z,101834.63
2022-12-12T03:12:11.917Z,101824.81
2022-12-12T03:13:31.858Z,101828.44
2022-12-12T03:14:49.719Z,101826.06
2022-12-12T03:16:19.176Z,101821.06
2022-12-12T03:17:31.569Z,101815.81
2022-12-12T03:18:48.466Z,101828.09
2022-12-12T03:19:57.177Z,101823.72
2022-12-12T03:21:06.494Z,101825.63
2022-12-12T03:22:16.956Z,101822.97
2022-12-12T03:23:24.766Z,101826.69
2022-12-12T03:24:30.668Z,101826.69
2022-12-12T03:26:01.407Z,101828.09
2022-12-12T03:27:16.905Z,101819.34
2022-12-12T03:28:29.416Z,101826.38
2022-12-12T03:29:49.823Z,101827.34
2022-12-12T03:30:56.139Z,101832.47
2022-12-12T03:32:04.117Z,101827.34
2022-12-12T03:33:20.191Z,101830.75
2022-12-12T03:34:28.004Z,101826.38
2022-12-12T03:35:42.736Z,101817.31
2022-12-12T03:36:59.530Z,101834.16
2022-12-12T03:38:16.521Z,101822.84
2022-12-12T03:39:24.649Z,101834.16
2022-12-12T03:40:41.130Z,101835.88
2022-12-12T03:41:50.549Z,101813.03
2022-12-12T03:43:01.769Z,101831.50
2022-12-12T03:44:19.011Z,101843.75
2022-12-12T03:45:26.639Z,101827.75
2022-12-12T03:46:33.695Z,101843.31
2022-12-12T03:47:46.841Z,101845.78
2022-12-12T03:49:12.829Z,101824.03
2022-12-12T03:50:29.082Z,101843.47
2022-12-12T03:51:36.909Z,101823.81
2022-12-12T03:52:48.644Z,101839.28
2022-12-12T03:53:56.337Z,101826.38
2022-12-12T03:55:08.576Z,101833.22
2022-12-12T03:56:22.678Z,101828.19
2022-12-12T03:57:32.814Z,101833.31
2022-12-12T03:58:59.743Z,101817.44
2022-12-12T04:00:10.957Z,101827.59
2022-12-12T04:01:18.957Z,101829.50
2022-12-12T04:03:09.837Z,101835.47
2022-12-12T04:04:29.159Z,101833.34
2022-12-12T04:06:17.569Z,101844.97
2022-12-12T04:07:24.701Z,101839.75
2022-12-12T04:08:27.495Z,101843.56
2022-12-12T04:09:48.759Z,101838.53
2022-12-12T04:11:15.462Z,101832.25
2022-12-12T04:12:44.917Z,101841.88
2022-12-12T04:14:16.117Z,101856.78
2022-12-12T04:15:26.719Z,101848.78
2022-12-12T04:16:38.800Z,101850.91
2022-12-12T04:17:56.618Z,101814.94
2022-12-12T04:19:10.355Z,101851.88
2022-12-12T04:21:04.970Z,101829.47
2022-12-12T04:22:27.604Z,101849.75
2022-12-12T04:23:32.364Z,101844.91
2022-12-12T04:24:47.178Z,101858.16
2022-12-12T04:26:07.730Z,101861.66
2022-12-12T04:27:12.575Z,101854.59
2022-12-12T04:28:14.545Z,101855.69
2022-12-12T04:29:19.311Z,101858.56
2022-12-12T04:30:21.149Z,101850.66
2022-12-12T04:31:26.535Z,101837.28
2022-12-12T04:32:43.073Z,101853.31
2022-12-12T04:33:50.193Z,101852.47
2022-12-12T04:35:10.903Z,101862.81
2022-12-12T04:36:16.944Z,101856.66
2022-12-12T04:37:42.804Z,101859.94
2022-12-12T04:38:47.478Z,101840.13
2022-12-12T04:39:53.774Z,101850.56
2022-12-12T04:40:58.856Z,101856.84
2022-12-12T04:42:02.054Z,101854.38
2022-12-12T04:43:12.350Z,101852.47
2022-12-12T04:44:17.925Z,101849.69
2022-12-12T04:45:24.688Z,101844.91
2022-12-12T04:46:29.000Z,101853.31
2022-12-12T04:47:32.160Z,101852.47
2022-12-12T04:48:59.182Z,101850.38
2022-12-12T04:50:02.581Z,101854.81
2022-12-12T04:51:06.236Z,101854.94
2022-12-12T04:52:11.682Z,101852.47
2022-12-12T04:53:18.759Z,101859.72
2022-12-12T04:54:55.023Z,101853.13
2022-12-12T04:55:59.670Z,101848.44
2022-12-12T04:57:06.084Z,101834.44
2022-12-12T04:58:08.562Z,101853.97
2022-12-12T04:59:10.407Z,101855.91
2022-12-12T05:00:13.769Z,101861.44
2022-12-12T05:01:58.899Z,101858.97
2022-12-12T05:03:15.164Z,101858.03
2022-12-12T05:04:31.200Z,101854.53
2022-12-12T05:06:01.433Z,101852.81
2022-12-12T05:07:10.853Z,101867.84
2022-12-12T05:08:18.560Z,101857.41
2022-12-12T05:09:20.653Z,101866.34
2022-12-12T05:10:22.892Z,101862.19
2022-12-12T05:11:24.943Z,101863.13
2022-12-12T05:12:27.009Z,101858.84
2022-12-12T05:13:32.002Z,101870.44
2022-12-12T05:14:33.909Z,101869.50
2022-12-12T05:15:39.150Z,101874.81
2022-12-12T05:16:51.775Z,101865.88
2022-12-12T05:17:59.362Z,101875.69
2022-12-12T05:19:01.824Z,101864.16
2022-12-12T05:20:03.866Z,101874.00
2022-12-12T05:21:05.762Z,101866.97
2022-12-12T05:22:07.521Z,101877.59
2022-12-12T05:23:09.410Z,101868.88
2022-12-12T05:24:11.248Z,101866.19
2022-12-12T05:25:13.684Z,101867.91
2022-12-12T05:26:21.921Z,101870.56
2022-12-12T05:27:23.681Z,101873.13
2022-12-12T05:28:25.438Z,101872.28
2022-12-12T05:29:27.278Z,101867.91
2022-12-12T05:30:29.366Z,101871.41
2022-12-12T05:31:31.273Z,101870.56
2022-12-12T05:32:33.049Z,101872.28
2022-12-12T05:33:34.847Z,101876.72
2022-12-12T05:34:36.625Z,101861.84
2022-12-12T05:35:38.884Z,101876.84
2022-12-12T05:36:40.719Z,101877.59
2022-12-12T05:37:45.511Z,101881.22
2022-12-12T05:38:51.722Z,101877.50
2022-12-12T05:39:53.584Z,101879.31
2022-12-12T05:40:55.387Z,101882.94
2022-12-12T05:41:57.276Z,101876.72
2022-12-12T05:42:59.093Z,101883.78
2022-12-12T05:44:00.894Z,101876.72
2022-12-12T05:45:02.909Z,101890.91
2022-12-12T05:46:05.268Z,101888.25
2022-12-12T05:47:07.339Z,101876.09
2022-12-12T05:48:09.130Z,101881.97
2022-12-12T05:49:10.917Z,101880.16
2022-12-12T05:50:12.699Z,101884.63
2022-12-12T05:51:14.462Z,101889.00
2022-12-12T05:52:16.291Z,101882.94
2022-12-12T05:53:18.210Z,101881.03
2022-12-12T05:54:20.070Z,101884.63
2022-12-12T05:55:21.825Z,101877.59
2022-12-12T05:56:23.626Z,101873.44
2022-12-12T05:57:25.617Z,101873.44
2022-12-12T05:58:27.509Z,101875.34
2022-12-12T05:59:31.023Z,101867.38
2022-12-12T06:00:32.794Z,101884.63
2022-12-12T06:01:34.776Z,101882.94
2022-12-12T06:02:36.916Z,101882.81
2022-12-12T06:03:38.739Z,101883.69
2022-12-12T06:04:40.850Z,101878.44
2022-12-12T06:05:42.612Z,101880.16
2022-12-12T06:06:44.708Z,101878.25
2022-12-12T06:07:46.559Z,101880.06
2022-12-12T06:08:48.475Z,101884.44
2022-12-12T06:09:50.277Z,101878.03
2022-12-12T06:10:52.341Z,101866.75
2022-12-12T06:11:54.337Z,101878.03
2022-12-12T06:12:56.099Z,101884.78
2022-12-12T06:13:57.922Z,101875.84
2022-12-12T06:15:00.001Z,101882.78
2022-12-12T06:16:10.059Z,101883.41
2022-12-12T06:17:12.009Z,101878.63
2022-12-12T06:18:13.846Z,101879.38
2022-12-12T06:19:15.649Z,101872.13
2022-12-12T06:20:18.654Z,101872.88
2022-12-12T06:21:21.136Z,101878.03
2022-12-12T06:22:22.897Z,101879.56
2022-12-12T06:23:24.807Z,101880.31
2022-12-12T06:24:27.143Z,101885.44
2022-12-12T06:25:29.012Z,101874.13
2022-12-12T06:26:30.801Z,101868.50
2022-12-12T06:27:32.580Z,101867.97
2022-12-12T06:28:34.599Z,101880.13
2022-12-12T06:29:36.659Z,101874.78
2022-12-12T06:30:38.585Z,101875.22
2022-12-12T06:31:40.509Z,101880.34
2022-12-12T06:32:42.793Z,101878.44
2022-12-12T06:33:44.883Z,101879.94
2022-12-12T06:34:46.750Z,101879.72
2022-12-12T06:36:14.048Z,101872.91
2022-12-12T06:37:17.509Z,101865.13
2022-12-12T06:38:19.725Z,101866.75
2022-12-12T06:39:21.597Z,101879.50
2022-12-12T06:40:23.490Z,101874.19
2022-12-12T06:41:27.493Z,101873.13
2022-12-12T06:42:29.417Z,101877.28
2022-12-12T06:43:31.200Z,101867.38
2022-12-12T06:44:33.425Z,101871.00
2022-12-12T06:45:35.269Z,101875.91
2022-12-12T06:46:37.304Z,101873.13
2022-12-12T06:47:40.348Z,101871.22
2022-12-12T06:48:42.669Z,101865.88
2022-12-12T06:49:44.462Z,101875.38
2022-12-12T06:50:46.549Z,101868.94
2022-12-12T06:51:48.932Z,101874.28
2022-12-12T06:52:50.731Z,101864.34
2022-12-12T06:53:53.020Z,101867.75
2022-12-12T06:54:55.564Z,101872.88
2022-12-12T06:55:57.333Z,101869.69
2022-12-12T06:56:59.138Z,101859.75
2022-12-12T06:58:00.951Z,101853.47
2022-12-12T06:59:02.826Z,101867.22
2022-12-12T07:00:05.055Z,101867.13
2022-12-12T07:01:07.534Z,101861.06
2022-12-12T07:02:11.530Z,101872.25
2022-12-12T07:03:13.781Z,101865.00
2022-12-12T07:04:15.982Z,101862.56
2022-12-12T07:05:17.951Z,101868.41
2022-12-12T07:06:21.999Z,101853.66
2022-12-12T07:07:23.953Z,101857.50
2022-12-12T07:08:28.313Z,101865.38
2022-12-12T07:09:30.682Z,101857.28
2022-12-12T07:10:35.941Z,101864.44
2022-12-12T07:11:39.671Z,101860.72
2022-12-12T07:12:42.631Z,101863.28
2022-12-12T07:13:47.581Z,101859.63
2022-12-12T07:14:49.432Z,101862.31
2022-12-12T07:15:51.262Z,101866.81
2022-12-12T07:16:53.088Z,101860.50
2022-12-12T07:17:54.863Z,101851.06
2022-12-12T07:18:56.694Z,101862.22
2022-12-12T07:19:58.503Z,101865.75
2022-12-12T07:21:00.313Z,101869.25
2022-12-12T07:22:09.142Z,101864.66
2022-12-12T07:23:12.457Z,101866.38
2022-12-12T07:24:15.835Z,101865.41
2022-12-12T07:25:17.661Z,101870.75
2022-12-12T07:26:22.121Z,101874.38
2022-12-12T07:27:23.940Z,101862.72
2022-12-12T07:28:25.754Z,101870.75
2022-12-12T07:29:27.621Z,101869.91
2022-12-12T07:30:29.559Z,101859.22
2022-12-12T07:31:31.644Z,101856.03
2022-12-12T07:32:33.425Z,101863.69
2022-12-12T07:33:43.004Z,101867.09
2022-12-12T07:34:45.852Z,101864.34
2022-12-12T07:35:47.934Z,101855.47
2022-12-12T07:36:49.728Z,101853.97
2022-12-12T07:37:52.005Z,101853.25
2022-12-12T07:38:53.874Z,101858.13
2022-12-12T07:39:55.926Z,101845.56
2022-12-12T07:41:04.769Z,101837.44
2022-12-12T07:42:06.871Z,101849.84
2022-12-12T07:43:09.654Z,101849.16
2022-12-12T07:44:12.028Z,101855.47
2022-12-12T07:45:18.193Z,101857.16
2022-12-12T07:46:23.793Z,101857.16
2022-12-12T07:47:25.761Z,101864.22
2022-12-12T07:48:28.995Z,101842.69
2022-12-12T07:49:30.878Z,101865.19
2022-12-12T07:50:32.672Z,101847.91
2022-12-12T07:51:34.625Z,101862.63
2022-12-12T07:52:36.440Z,101839.38
2022-12-12T07:53:38.218Z,101865.19
2022-12-12T07:54:39.988Z,101843.75
2022-12-12T07:55:41.970Z,101854.50
2022-12-12T07:56:43.744Z,101859.00
2022-12-12T07:57:45.600Z,101854.50
2022-12-12T07:58:47.777Z,101849.28
2022-12-12T07:59:49.629Z,101864.22
2022-12-12T08:00:51.426Z,101848.41
2022-12-12T08:01:53.226Z,101864.34
2022-12-12T08:02:55.034Z,101864.44
2022-12-12T08:03:56.929Z,101855.38
2022-12-12T08:04:58.789Z,101845.88
2022-12-12T08:06:00.559Z,101860.81
2022-12-12T08:07:08.117Z,101853.03
2022-12-12T08:08:11.014Z,101850.03
2022-12-12T08:09:12.830Z,101852.78
2022-12-12T08:10:15.178Z,101866.16
2022-12-12T08:11:20.908Z,101850.25
2022-12-12T08:12:23.621Z,101849.16
2022-12-12T08:13:25.533Z,101860.72
2022-12-12T08:14:27.881Z,101851.97
2022-12-12T08:15:29.821Z,101864.22
2022-12-12T08:16:31.834Z,101862.50
2022-12-12T08:17:33.719Z,101863.47
2022-12-12T08:18:35.904Z,101863.47
2022-12-12T08:19:37.802Z,101854.50
2022-12-12T08:20:40.803Z,101851.00
2022-12-12T08:21:43.610Z,101851.00
2022-12-12T08:22:45.379Z,101852.78
2022-12-12T08:23:47.181Z,101847.47
2022-12-12T08:24:49.972Z,101862.63
2022-12-12T08:25:51.878Z,101862.63
2022-12-12T08:26:53.649Z,101847.69
2022-12-12T08:27:55.602Z,101854.50
2022-12-12T08:28:58.529Z,101830.69
2022-12-12T08:30:01.257Z,101852.69
2022-12-12T08:31:03.625Z,101861.69
2022-12-12T08:32:05.573Z,101862.50
2022-12-12T08:33:08.320Z,101858.88
2022-12-12T08:34:10.573Z,101869.56
2022-12-12T08:35:12.653Z,101860.72
2022-12-12T08:36:21.015Z,101863.38
2022-12-12T08:37:22.881Z,101848.09
2022-12-12T08:38:24.665Z,101853.53
2022-12-12T08:39:26.590Z,101860.59
2022-12-12T08:40:28.324Z,101840.63
2022-12-12T08:41:30.139Z,101850.88
2022-12-12T08:42:32.593Z,101851.81
2022-12-12T08:43:35.297Z,101849.06
2022-12-12T08:44:37.325Z,101847.47
2022-12-12T08:45:39.714Z,101852.69
2022-12-12T08:46:42.010Z,101841.59
2022-12-12T08:47:43.892Z,101850.88
2022-12-12T08:48:47.118Z,101848.19
2022-12-12T08:49:48.914Z,101841.88
2022-12-12T08:50:52.547Z,101843.09
2022-12-12T08:51:54.359Z,101848.94
2022-12-12T08:52:56.222Z,101845.44
2022-12-12T08:53:57.986Z,101841.06
2022-12-12T08:54:59.861Z,101839.66
2022-12-12T08:56:01.654Z,101845.53
2022-12-12T08:57:04.078Z,101843.81
2022-12-12T08:58:05.856Z,101850.78
2022-12-12T08:59:07.746Z,101852.56
2022-12-12T09:00:10.689Z,101855.38
2022-12-12T09:01:18.658Z,101844.78
2022-12-12T09:02:20.675Z,101850.63
2022-12-12T09:03:27.698Z,101855.16
2022-12-12T09:04:31.238Z,101849.81
2022-12-12T09:05:33.620Z,101856.94
2022-12-12T09:06:36.047Z,101845.13
2022-12-12T09:07:37.829Z,101854.28
2022-12-12T09:08:39.948Z,101854.28
2022-12-12T09:09:41.826Z,101848.09
2022-12-12T09:10:43.726Z,101853.44
2022-12-12T09:11:46.647Z,101849.91
2022-12-12T09:12:48.599Z,101852.56
2022-12-12T09:13:50.556Z,101856.09
2022-12-12T09:14:52.384Z,101856.09
2022-12-12T09:15:54.208Z,101852.56
2022-12-12T09:16:56.321Z,101847.59
2022-12-12T09:17:58.320Z,101853.53
2022-12-12T09:19:00.173Z,101844.03
2022-12-12T09:20:02.012Z,101860.59
2022-12-12T09:21:04.170Z,101854.28
2022-12-12T09:22:05.963Z,101857.91
2022-12-12T09:23:07.789Z,101859.75
2022-12-12T09:24:10.012Z,101856.22
2022-12-12T09:25:12.285Z,101845.75
2022-12-12T09:26:14.243Z,101845.75
2022-12-12T09:27:16.218Z,101852.56
2022-12-12T09:28:19.924Z,101856.22
2022-12-12T09:29:21.981Z,101842.34
2022-12-12T09:30:23.894Z,101857.91
2022-12-12T09:31:26.195Z,101838.19
2022-12-12T09:32:28.277Z,101858.78
2022-12-12T09:33:30.103Z,101852.56
2022-12-12T09:34:33.087Z,101858.78
2022-12-12T09:35:34.932Z,101852.56
2022-12-12T09:36:36.824Z,101857.81
2022-12-12T09:37:38.750Z,101842.75
2022-12-12T09:38:41.386Z,101850.78
2022-12-12T09:39:43.626Z,101853.44
2022-12-12T09:40:55.523Z,101850.03
2022-12-12T09:41:57.838Z,101855.88
2022-12-12T09:43:00.657Z,101855.97
2022-12-12T09:44:10.205Z,101850.63
2022-12-12T09:45:12.339Z,101847.00
2022-12-12T09:46:22.184Z,101834.34
2022-12-12T09:47:40.584Z,101853.09
2022-12-12T09:48:45.711Z,101849.69
2022-12-12T09:49:50.978Z,101835.72
2022-12-12T09:50:53.600Z,101855.75
2022-12-12T09:51:57.725Z,101848.72
2022-12-12T09:53:03.262Z,101858.56
2022-12-12T09:54:05.894Z,101853.31
2022-12-12T09:55:46.190Z,101848.50
2022-12-12T09:57:24.929Z,101845.91
2022-12-12T09:58:34.363Z,101856.81
2022-12-12T10:00:02.666Z,101862.38
2022-12-12T10:01:22.087Z,101851.47
2022-12-12T10:02:23.884Z,101857.03
2022-12-12T10:03:49.877Z,101856.19
2022-12-12T10:05:02.845Z,101855.34
2022-12-12T10:07:43.998Z,101851.69
2022-12-12T10:08:54.839Z,101861.50
2022-12-12T10:10:12.808Z,101851.91
2022-12-12T10:11:44.392Z,101846.56
2022-12-12T10:12:48.016Z,101852.53
2022-12-12T10:13:49.789Z,101846.56
2022-12-12T10:15:04.401Z,101853.00
2022-12-12T10:16:12.866Z,101857.47
2022-12-12T10:17:25.184Z,101852.13
2022-12-12T10:18:32.695Z,101851.28
2022-12-12T10:19:44.381Z,101849.44
2022-12-12T10:20:52.501Z,101847.66
2022-12-12T10:22:02.349Z,101840.69
2022-12-12T10:23:27.680Z,101852.66
2022-12-12T10:24:29.661Z,101850.97
2022-12-12T10:25:50.078Z,101843.16
2022-12-12T10:26:52.558Z,101842.97
2022-12-12T10:28:20.279Z,101849.34
2022-12-12T10:29:25.961Z,101852.66
2022-12-12T10:30:32.201Z,101841.22
2022-12-12T10:32:07.038Z,101844.00
2022-12-12T10:33:08.914Z,101840.06
2022-12-12T10:34:40.769Z,101848.91
2022-12-12T10:35:45.667Z,101806.16
2022-12-12T10:36:59.821Z,101839.41
2022-12-12T10:38:09.985Z,101839.31
2022-12-12T10:39:48.180Z,101842.72
2022-12-12T10:40:56.141Z,101846.97
2022-12-12T10:42:12.657Z,101844.53
2022-12-12T10:43:22.496Z,101828.00
2022-12-12T10:45:18.106Z,101840.78
2022-12-12T10:46:31.745Z,101847.63
2022-12-12T10:47:34.859Z,101852.31
2022-12-12T10:48:36.892Z,101841.84
2022-12-12T10:49:40.326Z,101844.84
2022-12-12T10:50:50.440Z,101842.31
2022-12-12T10:51:54.589Z,101826.84
2022-12-12T10:52:56.678Z,101847.66
2022-12-12T10:53:58.604Z,101837.53
2022-12-12T10:55:01.323Z,101849.56
2022-12-12T10:56:07.922Z,101851.38
2022-12-12T10:57:19.924Z,101857.47
2022-12-12T10:58:27.211Z,101843.59
2022-12-12T10:59:29.154Z,101849.22
2022-12-12T11:00:37.514Z,101846.91
2022-12-12T11:03:14.723Z,101846.38
2022-12-12T11:04:16.658Z,101842.72
2022-12-12T11:05:22.789Z,101850.97
2022-12-12T11:06:30.600Z,101842.19
2022-12-12T11:07:41.021Z,101839.50
2022-12-12T11:09:07.926Z,101843.78
2022-12-12T11:10:34.276Z,101839.69
2022-12-12T11:11:36.692Z,101844.31
2022-12-12T11:12:38.753Z,101841.03
2022-12-12T11:14:05.322Z,101847.44
2022-12-12T11:15:17.255Z,101840.88
2022-12-12T11:16:23.777Z,101846.38
2022-12-12T11:17:30.976Z,101840.16
2022-12-12T11:18:32.897Z,101822.25
2022-12-12T11:19:39.359Z,101825.44
2022-12-12T11:21:01.417Z,101835.03
2022-12-12T11:22:04.802Z,101845.41
2022-12-12T11:23:18.380Z,101827.34
2022-12-12T11:24:30.047Z,101833.34
2022-12-12T11:25:33.379Z,101840.16
2022-12-12T11:27:07.215Z,101832.66
2022-12-12T11:28:21.777Z,101831.81
2022-12-12T11:29:35.729Z,101829.88
2022-12-12T11:30:43.832Z,101816.69
2022-12-12T11:31:45.849Z,101832.88
2022-12-12T11:32:50.238Z,101837.47
2022-12-12T11:33:57.166Z,101842.97
2022-12-12T11:35:02.118Z,101833.09
2022-12-12T11:36:06.627Z,101839.41
2022-12-12T11:37:21.324Z,101836.75
2022-12-12T11:38:31.979Z,101833.97
2022-12-12T11:39:44.248Z,101844.44
2022-12-12T11:40:55.540Z,101825.44
2022-12-12T11:42:22.205Z,101840.56
2022-12-12T11:43:32.232Z,101841.63
2022-12-12T11:44:38.311Z,101843.47
2022-12-12T11:45:40.214Z,101839.94
2022-12-12T11:46:42.117Z,101837.47
2022-12-12T11:47:46.703Z,101841.22
2022-12-12T11:48:54.265Z,101841.22
2022-12-12T11:50:01.357Z,101847.44
2022-12-12T11:51:06.288Z,101833.34
2022-12-12T11:52:23.845Z,101844.75
2022-12-12T11:53:26.258Z,101847.34
2022-12-12T11:54:31.698Z,101842.09
2022-12-12T11:55:48.713Z,101834.81
2022-12-12T11:56:57.647Z,101833.97
2022-12-12T11:58:31.753Z,101835.69
2022-12-12T11:59:45.649Z,101842.38
2022-12-12T12:01:26.281Z,101839.59
2022-12-12T12:02:46.598Z,101833.28
2022-12-12T12:04:20.279Z,101837.53
2022-12-12T12:05:43.661Z,101847.38
2022-12-12T12:07:16.493Z,101833.28
2022-12-12T12:08:30.417Z,101840.56
2022-12-12T12:09:43.626Z,101837.16
2022-12-12T12:10:48.221Z,101834.72
2022-12-12T12:12:33.687Z,101838.00
2022-12-12T12:13:41.444Z,101838.00
2022-12-12T12:14:58.996Z,101846.13
2022-12-12T12:16:06.438Z,101842.97
2022-12-12T12:17:23.067Z,101834.94
2022-12-12T12:19:03.513Z,101832.03
2022-12-12T12:20:20.219Z,101839.94
2022-12-12T12:21:41.052Z,101825.19
2022-12-12T12:22:43.442Z,101833.00
2022-12-12T12:24:19.059Z,101842.00
2022-12-12T12:25:54.520Z,101832.88
2022-12-12T12:27:20.726Z,101839.31
2022-12-12T12:29:01.346Z,101841.63
2022-12-12T12:30:08.647Z,101846.13
2022-12-12T12:31:40.921Z,101842.00
2022-12-12T12:33:10.813Z,101844.66
2022-12-12T12:35:00.739Z,101844.44
2022-12-12T12:36:39.542Z,101850.38
2022-12-12T12:38:00.543Z,101853.28
2022-12-12T12:39:17.745Z,101842.72
2022-12-12T12:40:48.034Z,101840.38
2022-12-12T12:42:05.428Z,101849.22
2022-12-12T12:43:26.045Z,101856.31
2022-12-12T12:44:35.542Z,101848.50
2022-12-12T12:45:53.185Z,101847.66
2022-12-12T12:47:15.953Z,101852.13
2022-12-12T12:48:41.218Z,101844.66
2022-12-12T12:49:57.816Z,101842.31
2022-12-12T12:51:07.114Z,101848.50
2022-12-12T12:52:18.002Z,101845.06
2022-12-12T12:53:45.998Z,101844.00
2022-12-12T12:54:49.374Z,101834.63
2022-12-12T12:55:56.371Z,101839.97
2022-12-12T12:57:10.242Z,101834.63
2022-12-12T12:58:36.293Z,101832.59
2022-12-12T12:59:45.571Z,101833.56
2022-12-12T13:00:55.498Z,101835.50